sensor_id;sensor_type;location;lat;lon;timestamp;P1;durP1;ratioP1;P2;durP2;ratioP2
37843;SDS011;63793;57.632;18.292;2023-05-19T00:01:12;6.25;;;1.92;;
37843;SDS011;63793;57.632;18.292;2023-05-19T00:03:55;12.25;;;3.65;;
37843;SDS011;63793;57.632;18.292;2023-05-19T00:06:25;5.50;;;2.58;;
37843;SDS011;63793;57.632;18.292;2023-05-19T00:09:02;4.70;;;2.58;;
37843;SDS011;63793;57.632;18.292;2023-05-19T00:11:34;7.53;;;2.20;;
37843;SDS011;63793;57.632;18.292;2023-05-19T00:14:04;19.20;;;4.78;;
37843;SDS011;63793;57.632;18.292;2023-05-19T00:16:33;6.53;;;2.00;;
37843;SDS011;63793;57.632;18.292;2023-05-19T00:19:01;11.75;;;3.70;;
37843;SDS011;63793;57.632;18.292;2023-05-19T00:21:30;4.97;;;3.25;;
37843;SDS011;63793;57.632;18.292;2023-05-19T00:23:57;5.75;;;3.65;;
37843;SDS011;63793;57.632;18.292;2023-05-19T00:26:25;5.63;;;3.17;;
37843;SDS011;63793;57.632;18.292;2023-05-19T00:28:58;6.07;;;3.63;;
37843;SDS011;63793;57.632;18.292;2023-05-19T00:31:25;14.27;;;3.88;;
37843;SDS011;63793;57.632;18.292;2023-05-19T00:33:53;9.50;;;3.95;;
37843;SDS011;63793;57.632;18.292;2023-05-19T00:36:20;11.15;;;2.63;;
37843;SDS011;63793;57.632;18.292;2023-05-19T00:38:47;6.63;;;2.35;;
37843;SDS011;63793;57.632;18.292;2023-05-19T00:41:16;5.35;;;2.58;;
37843;SDS011;63793;57.632;18.292;2023-05-19T00:43:43;12.77;;;3.63;;
37843;SDS011;63793;57.632;18.292;2023-05-19T00:46:10;10.38;;;2.72;;
37843;SDS011;63793;57.632;18.292;2023-05-19T00:48:37;6.63;;;2.78;;
37843;SDS011;63793;57.632;18.292;2023-05-19T00:51:04;8.43;;;3.40;;
37843;SDS011;63793;57.632;18.292;2023-05-19T00:53:32;9.10;;;3.75;;
37843;SDS011;63793;57.632;18.292;2023-05-19T00:56:00;9.27;;;3.88;;
37843;SDS011;63793;57.632;18.292;2023-05-19T00:58:28;8.45;;;4.38;;
37843;SDS011;63793;57.632;18.292;2023-05-19T01:00:58;10.10;;;4.13;;
37843;SDS011;63793;57.632;18.292;2023-05-19T01:03:30;5.60;;;3.92;;
37843;SDS011;63793;57.632;18.292;2023-05-19T01:06:01;9.35;;;2.63;;
37843;SDS011;63793;57.632;18.292;2023-05-19T01:08:31;12.88;;;3.95;;
37843;SDS011;63793;57.632;18.292;2023-05-19T01:10:59;9.55;;;4.75;;
37843;SDS011;63793;57.632;18.292;2023-05-19T01:13:26;9.50;;;3.30;;
37843;SDS011;63793;57.632;18.292;2023-05-19T01:16:03;10.32;;;3.35;;
37843;SDS011;63793;57.632;18.292;2023-05-19T01:29:40;4.82;;;3.90;;
37843;SDS011;63793;57.632;18.292;2023-05-19T01:32:14;6.82;;;3.85;;
37843;SDS011;63793;57.632;18.292;2023-05-19T01:34:46;10.02;;;3.53;;
37843;SDS011;63793;57.632;18.292;2023-05-19T01:37:16;8.63;;;3.78;;
37843;SDS011;63793;57.632;18.292;2023-05-19T01:39:44;7.32;;;3.45;;
37843;SDS011;63793;57.632;18.292;2023-05-19T01:42:13;13.50;;;3.53;;
37843;SDS011;63793;57.632;18.292;2023-05-19T01:44:42;8.65;;;4.40;;
37843;SDS011;63793;57.632;18.292;2023-05-19T01:47:09;8.40;;;3.05;;
37843;SDS011;63793;57.632;18.292;2023-05-19T01:49:36;5.85;;;3.08;;
37843;SDS011;63793;57.632;18.292;2023-05-19T01:52:03;10.48;;;2.75;;
37843;SDS011;63793;57.632;18.292;2023-05-19T01:54:30;12.82;;;4.43;;
37843;SDS011;63793;57.632;18.292;2023-05-19T01:59:57;9.63;;;4.88;;
37843;SDS011;63793;57.632;18.292;2023-05-19T02:02:56;10.02;;;2.72;;
37843;SDS011;63793;57.632;18.292;2023-05-19T02:11:22;14.18;;;4.25;;
37843;SDS011;63793;57.632;18.292;2023-05-19T02:13:59;8.30;;;3.65;;
37843;SDS011;63793;57.632;18.292;2023-05-19T02:18:56;7.47;;;3.47;;
37843;SDS011;63793;57.632;18.292;2023-05-19T02:21:25;8.45;;;5.18;;
37843;SDS011;63793;57.632;18.292;2023-05-19T02:23:53;8.07;;;4.40;;
37843;SDS011;63793;57.632;18.292;2023-05-19T02:26:20;17.52;;;4.15;;
37843;SDS011;63793;57.632;18.292;2023-05-19T02:28:48;10.10;;;3.72;;
37843;SDS011;63793;57.632;18.292;2023-05-19T02:31:16;6.45;;;4.03;;
37843;SDS011;63793;57.632;18.292;2023-05-19T02:33:43;8.98;;;4.35;;
37843;SDS011;63793;57.632;18.292;2023-05-19T02:36:10;10.23;;;4.63;;
37843;SDS011;63793;57.632;18.292;2023-05-19T02:38:37;11.73;;;4.65;;
37843;SDS011;63793;57.632;18.292;2023-05-19T02:41:03;10.60;;;4.25;;
37843;SDS011;63793;57.632;18.292;2023-05-19T02:43:30;11.07;;;5.57;;
37843;SDS011;63793;57.632;18.292;2023-05-19T02:45:57;11.77;;;3.67;;
37843;SDS011;63793;57.632;18.292;2023-05-19T02:48:25;14.02;;;4.65;;
37843;SDS011;63793;57.632;18.292;2023-05-19T02:50:52;10.65;;;4.00;;
37843;SDS011;63793;57.632;18.292;2023-05-19T02:53:19;8.52;;;3.60;;
37843;SDS011;63793;57.632;18.292;2023-05-19T02:55:46;9.18;;;4.40;;
37843;SDS011;63793;57.632;18.292;2023-05-19T02:58:12;10.38;;;4.18;;
37843;SDS011;63793;57.632;18.292;2023-05-19T03:00:39;9.30;;;3.85;;
37843;SDS011;63793;57.632;18.292;2023-05-19T03:03:06;7.72;;;4.15;;
37843;SDS011;63793;57.632;18.292;2023-05-19T03:05:35;16.20;;;4.05;;
37843;SDS011;63793;57.632;18.292;2023-05-19T03:08:02;9.25;;;3.92;;
37843;SDS011;63793;57.632;18.292;2023-05-19T03:10:29;11.20;;;3.60;;
37843;SDS011;63793;57.632;18.292;2023-05-19T03:12:57;7.10;;;4.65;;
37843;SDS011;63793;57.632;18.292;2023-05-19T03:15:23;11.60;;;3.05;;
37843;SDS011;63793;57.632;18.292;2023-05-19T03:17:50;9.55;;;3.22;;
37843;SDS011;63793;57.632;18.292;2023-05-19T03:20:18;10.77;;;3.33;;
37843;SDS011;63793;57.632;18.292;2023-05-19T03:22:44;9.60;;;3.88;;
37843;SDS011;63793;57.632;18.292;2023-05-19T03:25:11;10.45;;;4.15;;
37843;SDS011;63793;57.632;18.292;2023-05-19T03:27:39;10.30;;;4.95;;
37843;SDS011;63793;57.632;18.292;2023-05-19T03:30:06;9.00;;;3.60;;
37843;SDS011;63793;57.632;18.292;2023-05-19T03:32:44;10.55;;;4.97;;
37843;SDS011;63793;57.632;18.292;2023-05-19T03:35:11;14.00;;;3.70;;
37843;SDS011;63793;57.632;18.292;2023-05-19T03:37:38;13.20;;;4.47;;
37843;SDS011;63793;57.632;18.292;2023-05-19T03:40:05;13.88;;;4.30;;
37843;SDS011;63793;57.632;18.292;2023-05-19T03:45:02;20.35;;;5.00;;
37843;SDS011;63793;57.632;18.292;2023-05-19T03:47:30;9.20;;;4.32;;
37843;SDS011;63793;57.632;18.292;2023-05-19T03:50:16;5.72;;;3.35;;
37843;SDS011;63793;57.632;18.292;2023-05-19T03:52:59;9.60;;;3.10;;
37843;SDS011;63793;57.632;18.292;2023-05-19T03:55:28;12.43;;;3.78;;
37843;SDS011;63793;57.632;18.292;2023-05-19T03:57:55;9.73;;;3.10;;
37843;SDS011;63793;57.632;18.292;2023-05-19T04:00:22;14.32;;;4.03;;
37843;SDS011;63793;57.632;18.292;2023-05-19T04:02:50;9.88;;;5.30;;
37843;SDS011;63793;57.632;18.292;2023-05-19T04:05:17;14.25;;;4.72;;
37843;SDS011;63793;57.632;18.292;2023-05-19T04:07:44;18.15;;;4.47;;
37843;SDS011;63793;57.632;18.292;2023-05-19T04:10:12;8.90;;;3.60;;
37843;SDS011;63793;57.632;18.292;2023-05-19T04:12:39;18.95;;;5.22;;
37843;SDS011;63793;57.632;18.292;2023-05-19T04:15:07;11.05;;;3.78;;
37843;SDS011;63793;57.632;18.292;2023-05-19T04:17:36;6.10;;;3.13;;
37843;SDS011;63793;57.632;18.292;2023-05-19T04:20:04;12.40;;;4.82;;
37843;SDS011;63793;57.632;18.292;2023-05-19T04:22:31;13.40;;;5.28;;
37843;SDS011;63793;57.632;18.292;2023-05-19T04:24:58;9.10;;;4.03;;
37843;SDS011;63793;57.632;18.292;2023-05-19T04:27:26;9.23;;;3.97;;
37843;SDS011;63793;57.632;18.292;2023-05-19T04:29:55;7.45;;;3.45;;
37843;SDS011;63793;57.632;18.292;2023-05-19T04:32:23;12.30;;;3.70;;
37843;SDS011;63793;57.632;18.292;2023-05-19T04:34:52;12.05;;;3.47;;
37843;SDS011;63793;57.632;18.292;2023-05-19T04:37:23;9.88;;;4.47;;
37843;SDS011;63793;57.632;18.292;2023-05-19T04:39:51;8.55;;;3.20;;
37843;SDS011;63793;57.632;18.292;2023-05-19T04:42:21;7.82;;;3.95;;
37843;SDS011;63793;57.632;18.292;2023-05-19T04:44:52;8.07;;;3.30;;
37843;SDS011;63793;57.632;18.292;2023-05-19T04:47:21;7.57;;;3.60;;
37843;SDS011;63793;57.632;18.292;2023-05-19T04:49:53;10.90;;;3.88;;
37843;SDS011;63793;57.632;18.292;2023-05-19T04:52:21;7.05;;;3.13;;
37843;SDS011;63793;57.632;18.292;2023-05-19T04:54:49;7.57;;;2.50;;
37843;SDS011;63793;57.632;18.292;2023-05-19T04:57:16;10.82;;;5.35;;
37843;SDS011;63793;57.632;18.292;2023-05-19T04:59:44;9.50;;;3.00;;
37843;SDS011;63793;57.632;18.292;2023-05-19T05:02:11;10.82;;;4.05;;
37843;SDS011;63793;57.632;18.292;2023-05-19T05:04:38;5.63;;;2.10;;
37843;SDS011;63793;57.632;18.292;2023-05-19T05:09:36;3.45;;;2.15;;
37843;SDS011;63793;57.632;18.292;2023-05-19T05:12:03;8.48;;;3.15;;
37843;SDS011;63793;57.632;18.292;2023-05-19T05:14:34;4.97;;;2.63;;
37843;SDS011;63793;57.632;18.292;2023-05-19T05:17:02;7.78;;;2.03;;
37843;SDS011;63793;57.632;18.292;2023-05-19T05:19:30;9.65;;;2.38;;
37843;SDS011;63793;57.632;18.292;2023-05-19T05:21:57;5.32;;;2.22;;
37843;SDS011;63793;57.632;18.292;2023-05-19T05:24:25;8.13;;;2.47;;
37843;SDS011;63793;57.632;18.292;2023-05-19T05:26:56;7.65;;;2.63;;
37843;SDS011;63793;57.632;18.292;2023-05-19T05:29:24;7.05;;;1.83;;
37843;SDS011;63793;57.632;18.292;2023-05-19T05:31:51;2.60;;;1.90;;
37843;SDS011;63793;57.632;18.292;2023-05-19T05:34:18;11.20;;;3.17;;
37843;SDS011;63793;57.632;18.292;2023-05-19T05:36:46;7.55;;;2.40;;
37843;SDS011;63793;57.632;18.292;2023-05-19T05:39:13;7.95;;;2.53;;
37843;SDS011;63793;57.632;18.292;2023-05-19T05:41:42;4.85;;;2.10;;
37843;SDS011;63793;57.632;18.292;2023-05-19T05:44:10;7.15;;;2.38;;
37843;SDS011;63793;57.632;18.292;2023-05-19T05:46:40;5.45;;;1.02;;
37843;SDS011;63793;57.632;18.292;2023-05-19T05:49:07;2.38;;;1.10;;
37843;SDS011;63793;57.632;18.292;2023-05-19T05:51:35;6.40;;;1.55;;
37843;SDS011;63793;57.632;18.292;2023-05-19T05:54:03;6.50;;;2.13;;
37843;SDS011;63793;57.632;18.292;2023-05-19T05:56:36;6.47;;;2.15;;
37843;SDS011;63793;57.632;18.292;2023-05-19T05:59:06;5.10;;;1.50;;
37843;SDS011;63793;57.632;18.292;2023-05-19T06:01:33;6.13;;;1.63;;
37843;SDS011;63793;57.632;18.292;2023-05-19T06:04:03;4.03;;;1.30;;
37843;SDS011;63793;57.632;18.292;2023-05-19T06:06:30;1.58;;;1.48;;
37843;SDS011;63793;57.632;18.292;2023-05-19T06:09:00;3.20;;;1.20;;
37843;SDS011;63793;57.632;18.292;2023-05-19T06:11:27;7.40;;;2.10;;
37843;SDS011;63793;57.632;18.292;2023-05-19T06:13:56;2.78;;;1.40;;
37843;SDS011;63793;57.632;18.292;2023-05-19T06:16:49;2.60;;;2.22;;
37843;SDS011;63793;57.632;18.292;2023-05-19T06:19:17;4.50;;;0.88;;
37843;SDS011;63793;57.632;18.292;2023-05-19T06:21:45;5.25;;;1.08;;
37843;SDS011;63793;57.632;18.292;2023-05-19T06:24:13;2.47;;;0.90;;
37843;SDS011;63793;57.632;18.292;2023-05-19T06:26:40;5.20;;;1.45;;
37843;SDS011;63793;57.632;18.292;2023-05-19T06:29:07;1.55;;;1.00;;
37843;SDS011;63793;57.632;18.292;2023-05-19T06:31:34;1.75;;;0.82;;
37843;SDS011;63793;57.632;18.292;2023-05-19T06:34:07;2.60;;;1.10;;
37843;SDS011;63793;57.632;18.292;2023-05-19T06:36:38;2.22;;;1.02;;
37843;SDS011;63793;57.632;18.292;2023-05-19T06:39:07;1.90;;;0.93;;
37843;SDS011;63793;57.632;18.292;2023-05-19T06:41:34;3.45;;;1.58;;
37843;SDS011;63793;57.632;18.292;2023-05-19T06:44:02;3.05;;;1.17;;
37843;SDS011;63793;57.632;18.292;2023-05-19T06:46:31;4.22;;;2.00;;
37843;SDS011;63793;57.632;18.292;2023-05-19T06:48:58;2.63;;;1.63;;
37843;SDS011;63793;57.632;18.292;2023-05-19T06:53:58;3.40;;;1.75;;
37843;SDS011;63793;57.632;18.292;2023-05-19T06:56:25;6.40;;;1.88;;
37843;SDS011;63793;57.632;18.292;2023-05-19T06:58:52;5.85;;;1.83;;
37843;SDS011;63793;57.632;18.292;2023-05-19T07:01:23;4.50;;;1.52;;
37843;SDS011;63793;57.632;18.292;2023-05-19T07:06:21;7.15;;;2.00;;
37843;SDS011;63793;57.632;18.292;2023-05-19T07:08:49;3.67;;;1.20;;
37843;SDS011;63793;57.632;18.292;2023-05-19T07:11:17;4.72;;;2.08;;
37843;SDS011;63793;57.632;18.292;2023-05-19T07:13:43;2.63;;;1.45;;
37843;SDS011;63793;57.632;18.292;2023-05-19T07:16:14;2.22;;;1.40;;
37843;SDS011;63793;57.632;18.292;2023-05-19T07:18:43;3.67;;;1.13;;
37843;SDS011;63793;57.632;18.292;2023-05-19T07:21:10;4.28;;;1.38;;
37843;SDS011;63793;57.632;18.292;2023-05-19T07:23:37;4.65;;;1.60;;
37843;SDS011;63793;57.632;18.292;2023-05-19T07:26:04;5.57;;;1.55;;
37843;SDS011;63793;57.632;18.292;2023-05-19T07:28:31;2.00;;;1.38;;
37843;SDS011;63793;57.632;18.292;2023-05-19T07:30:59;3.35;;;1.52;;
37843;SDS011;63793;57.632;18.292;2023-05-19T07:33:26;5.38;;;1.20;;
37843;SDS011;63793;57.632;18.292;2023-05-19T07:35:53;3.75;;;1.58;;
37843;SDS011;63793;57.632;18.292;2023-05-19T07:38:20;3.97;;;1.20;;
37843;SDS011;63793;57.632;18.292;2023-05-19T07:40:47;3.10;;;1.13;;
37843;SDS011;63793;57.632;18.292;2023-05-19T07:43:14;4.85;;;1.45;;
37843;SDS011;63793;57.632;18.292;2023-05-19T07:45:41;4.63;;;1.50;;
37843;SDS011;63793;57.632;18.292;2023-05-19T07:48:08;5.75;;;3.05;;
37843;SDS011;63793;57.632;18.292;2023-05-19T07:50:35;8.73;;;2.22;;
37843;SDS011;63793;57.632;18.292;2023-05-19T07:53:02;10.18;;;2.22;;
37843;SDS011;63793;57.632;18.292;2023-05-19T07:55:29;10.15;;;3.72;;
37843;SDS011;63793;57.632;18.292;2023-05-19T07:57:56;11.27;;;3.22;;
37843;SDS011;63793;57.632;18.292;2023-05-19T08:00:23;11.40;;;3.13;;
37843;SDS011;63793;57.632;18.292;2023-05-19T08:02:50;16.77;;;4.00;;
37843;SDS011;63793;57.632;18.292;2023-05-19T08:05:18;9.13;;;3.40;;
37843;SDS011;63793;57.632;18.292;2023-05-19T08:07:45;10.23;;;2.90;;
37843;SDS011;63793;57.632;18.292;2023-05-19T08:10:12;5.88;;;3.03;;
37843;SDS011;63793;57.632;18.292;2023-05-19T08:12:39;22.58;;;3.00;;
37843;SDS011;63793;57.632;18.292;2023-05-19T08:15:06;6.72;;;2.90;;
37843;SDS011;63793;57.632;18.292;2023-05-19T08:17:33;6.55;;;2.80;;
37843;SDS011;63793;57.632;18.292;2023-05-19T08:20:00;7.32;;;2.85;;
37843;SDS011;63793;57.632;18.292;2023-05-19T08:22:30;10.18;;;3.63;;
37843;SDS011;63793;57.632;18.292;2023-05-19T08:24:57;12.30;;;3.83;;
37843;SDS011;63793;57.632;18.292;2023-05-19T08:27:24;11.55;;;3.47;;
37843;SDS011;63793;57.632;18.292;2023-05-19T08:29:51;7.68;;;2.72;;
37843;SDS011;63793;57.632;18.292;2023-05-19T08:32:18;8.45;;;2.60;;
37843;SDS011;63793;57.632;18.292;2023-05-19T08:34:44;7.95;;;3.30;;
37843;SDS011;63793;57.632;18.292;2023-05-19T08:37:11;7.40;;;4.32;;
37843;SDS011;63793;57.632;18.292;2023-05-19T08:39:38;13.35;;;4.00;;
37843;SDS011;63793;57.632;18.292;2023-05-19T08:42:06;7.15;;;3.42;;
37843;SDS011;63793;57.632;18.292;2023-05-19T08:44:38;14.93;;;4.93;;
37843;SDS011;63793;57.632;18.292;2023-05-19T08:49:44;10.23;;;3.42;;
37843;SDS011;63793;57.632;18.292;2023-05-19T08:52:24;5.88;;;3.75;;
37843;SDS011;63793;57.632;18.292;2023-05-19T08:55:17;15.07;;;5.25;;
37843;SDS011;63793;57.632;18.292;2023-05-19T08:57:51;8.20;;;2.63;;
37843;SDS011;63793;57.632;18.292;2023-05-19T09:00:18;10.65;;;3.67;;
37843;SDS011;63793;57.632;18.292;2023-05-19T09:02:49;6.50;;;3.03;;
37843;SDS011;63793;57.632;18.292;2023-05-19T09:05:31;10.55;;;2.78;;
37843;SDS011;63793;57.632;18.292;2023-05-19T09:07:58;9.13;;;3.38;;
37843;SDS011;63793;57.632;18.292;2023-05-19T09:10:28;8.98;;;3.80;;
37843;SDS011;63793;57.632;18.292;2023-05-19T09:12:55;11.48;;;2.95;;
37843;SDS011;63793;57.632;18.292;2023-05-19T09:15:21;9.05;;;3.17;;
37843;SDS011;63793;57.632;18.292;2023-05-19T09:18:05;9.05;;;4.00;;
37843;SDS011;63793;57.632;18.292;2023-05-19T09:20:38;14.32;;;3.83;;
37843;SDS011;63793;57.632;18.292;2023-05-19T09:23:06;10.35;;;2.53;;
37843;SDS011;63793;57.632;18.292;2023-05-19T09:25:33;12.73;;;3.50;;
37843;SDS011;63793;57.632;18.292;2023-05-19T09:28:00;10.07;;;4.28;;
37843;SDS011;63793;57.632;18.292;2023-05-19T09:30:28;5.20;;;2.40;;
37843;SDS011;63793;57.632;18.292;2023-05-19T09:32:55;11.75;;;2.92;;
37843;SDS011;63793;57.632;18.292;2023-05-19T09:35:22;8.50;;;3.33;;
37843;SDS011;63793;57.632;18.292;2023-05-19T09:37:49;11.75;;;4.05;;
37843;SDS011;63793;57.632;18.292;2023-05-19T09:40:16;7.40;;;3.47;;
37843;SDS011;63793;57.632;18.292;2023-05-19T09:42:43;10.43;;;4.05;;
37843;SDS011;63793;57.632;18.292;2023-05-19T09:45:10;8.10;;;2.35;;
37843;SDS011;63793;57.632;18.292;2023-05-19T09:47:37;10.07;;;3.10;;
37843;SDS011;63793;57.632;18.292;2023-05-19T09:50:07;10.95;;;3.67;;
37843;SDS011;63793;57.632;18.292;2023-05-19T09:52:39;13.17;;;3.97;;
37843;SDS011;63793;57.632;18.292;2023-05-19T09:55:09;6.45;;;3.60;;
37843;SDS011;63793;57.632;18.292;2023-05-19T09:57:38;11.60;;;3.65;;
37843;SDS011;63793;57.632;18.292;2023-05-19T10:00:06;8.00;;;2.65;;
37843;SDS011;63793;57.632;18.292;2023-05-19T10:02:40;10.65;;;4.57;;
37843;SDS011;63793;57.632;18.292;2023-05-19T10:05:18;14.20;;;3.23;;
37843;SDS011;63793;57.632;18.292;2023-05-19T10:07:46;4.38;;;2.20;;
37843;SDS011;63793;57.632;18.292;2023-05-19T10:10:16;10.18;;;3.53;;
37843;SDS011;63793;57.632;18.292;2023-05-19T10:12:47;11.82;;;3.03;;
37843;SDS011;63793;57.632;18.292;2023-05-19T10:15:15;9.00;;;2.95;;
37843;SDS011;63793;57.632;18.292;2023-05-19T10:17:46;13.35;;;3.10;;
37843;SDS011;63793;57.632;18.292;2023-05-19T10:20:15;16.13;;;4.32;;
37843;SDS011;63793;57.632;18.292;2023-05-19T10:22:43;11.25;;;3.75;;
37843;SDS011;63793;57.632;18.292;2023-05-19T10:25:11;8.15;;;2.88;;
37843;SDS011;63793;57.632;18.292;2023-05-19T10:27:45;10.25;;;3.30;;
37843;SDS011;63793;57.632;18.292;2023-05-19T10:30:22;7.10;;;3.50;;
37843;SDS011;63793;57.632;18.292;2023-05-19T10:32:53;11.80;;;5.13;;
37843;SDS011;63793;57.632;18.292;2023-05-19T10:38:39;10.52;;;3.33;;
37843;SDS011;63793;57.632;18.292;2023-05-19T10:43:59;10.10;;;3.50;;
37843;SDS011;63793;57.632;18.292;2023-05-19T10:46:29;10.05;;;3.45;;
37843;SDS011;63793;57.632;18.292;2023-05-19T10:48:57;10.15;;;3.40;;
37843;SDS011;63793;57.632;18.292;2023-05-19T10:51:27;5.07;;;2.60;;
37843;SDS011;63793;57.632;18.292;2023-05-19T10:53:57;6.65;;;3.45;;
37843;SDS011;63793;57.632;18.292;2023-05-19T10:56:29;5.65;;;2.67;;
37843;SDS011;63793;57.632;18.292;2023-05-19T10:58:59;7.90;;;2.67;;
37843;SDS011;63793;57.632;18.292;2023-05-19T11:01:30;10.27;;;2.72;;
37843;SDS011;63793;57.632;18.292;2023-05-19T11:04:05;5.60;;;1.83;;
37843;SDS011;63793;57.632;18.292;2023-05-19T11:06:37;10.73;;;2.33;;
37843;SDS011;63793;57.632;18.292;2023-05-19T11:09:13;8.02;;;2.78;;
37843;SDS011;63793;57.632;18.292;2023-05-19T11:11:47;5.57;;;3.17;;
37843;SDS011;63793;57.632;18.292;2023-05-19T11:14:21;9.95;;;2.80;;
37843;SDS011;63793;57.632;18.292;2023-05-19T11:16:56;14.25;;;3.17;;
37843;SDS011;63793;57.632;18.292;2023-05-19T11:22:07;6.22;;;2.22;;
37843;SDS011;63793;57.632;18.292;2023-05-19T11:27:25;12.18;;;3.10;;
37843;SDS011;63793;57.632;18.292;2023-05-19T11:29:54;14.48;;;3.83;;
37843;SDS011;63793;57.632;18.292;2023-05-19T11:32:25;8.55;;;2.30;;
37843;SDS011;63793;57.632;18.292;2023-05-19T11:34:55;5.30;;;2.38;;
37843;SDS011;63793;57.632;18.292;2023-05-19T11:37:23;11.13;;;2.47;;
37843;SDS011;63793;57.632;18.292;2023-05-19T11:39:50;7.97;;;3.33;;
37843;SDS011;63793;57.632;18.292;2023-05-19T11:42:18;8.48;;;2.60;;
37843;SDS011;63793;57.632;18.292;2023-05-19T11:44:45;8.10;;;2.28;;
37843;SDS011;63793;57.632;18.292;2023-05-19T11:47:13;12.30;;;3.13;;
37843;SDS011;63793;57.632;18.292;2023-05-19T11:49:44;7.82;;;2.53;;
37843;SDS011;63793;57.632;18.292;2023-05-19T11:52:13;9.52;;;2.28;;
37843;SDS011;63793;57.632;18.292;2023-05-19T11:54:41;6.93;;;3.08;;
37843;SDS011;63793;57.632;18.292;2023-05-19T11:57:08;23.30;;;3.35;;
37843;SDS011;63793;57.632;18.292;2023-05-19T11:59:39;8.30;;;2.08;;
37843;SDS011;63793;57.632;18.292;2023-05-19T12:02:17;8.43;;;2.25;;
37843;SDS011;63793;57.632;18.292;2023-05-19T12:04:46;10.30;;;4.05;;
37843;SDS011;63793;57.632;18.292;2023-05-19T12:07:15;4.60;;;2.00;;
37843;SDS011;63793;57.632;18.292;2023-05-19T12:09:46;11.30;;;2.33;;
37843;SDS011;63793;57.632;18.292;2023-05-19T12:12:18;5.25;;;2.70;;
37843;SDS011;63793;57.632;18.292;2023-05-19T12:14:46;6.95;;;2.70;;
37843;SDS011;63793;57.632;18.292;2023-05-19T12:17:20;7.68;;;1.88;;
37843;SDS011;63793;57.632;18.292;2023-05-19T12:19:49;8.05;;;1.85;;
37843;SDS011;63793;57.632;18.292;2023-05-19T12:22:16;4.72;;;1.58;;
37843;SDS011;63793;57.632;18.292;2023-05-19T12:24:44;9.13;;;2.38;;
37843;SDS011;63793;57.632;18.292;2023-05-19T12:27:16;6.55;;;3.05;;
37843;SDS011;63793;57.632;18.292;2023-05-19T12:29:48;13.05;;;1.92;;
37843;SDS011;63793;57.632;18.292;2023-05-19T12:32:22;7.78;;;1.95;;
37843;SDS011;63793;57.632;18.292;2023-05-19T12:34:51;11.75;;;3.05;;
37843;SDS011;63793;57.632;18.292;2023-05-19T12:37:19;4.28;;;2.03;;
37843;SDS011;63793;57.632;18.292;2023-05-19T12:39:49;6.47;;;1.90;;
37843;SDS011;63793;57.632;18.292;2023-05-19T12:42:16;10.68;;;3.25;;
37843;SDS011;63793;57.632;18.292;2023-05-19T12:44:44;5.47;;;1.92;;
37843;SDS011;63793;57.632;18.292;2023-05-19T12:47:12;4.20;;;1.75;;
37843;SDS011;63793;57.632;18.292;2023-05-19T12:52:45;5.82;;;2.05;;
37843;SDS011;63793;57.632;18.292;2023-05-19T12:55:13;6.35;;;2.40;;
37843;SDS011;63793;57.632;18.292;2023-05-19T12:57:47;9.65;;;2.85;;
37843;SDS011;63793;57.632;18.292;2023-05-19T13:00:25;11.38;;;4.20;;
37843;SDS011;63793;57.632;18.292;2023-05-19T13:05:24;5.78;;;2.30;;
37843;SDS011;63793;57.632;18.292;2023-05-19T13:07:53;15.07;;;4.03;;
37843;SDS011;63793;57.632;18.292;2023-05-19T13:10:24;5.25;;;3.45;;
37843;SDS011;63793;57.632;18.292;2023-05-19T13:12:53;11.20;;;2.40;;
37843;SDS011;63793;57.632;18.292;2023-05-19T13:15:21;4.03;;;2.33;;
37843;SDS011;63793;57.632;18.292;2023-05-19T13:17:50;10.95;;;2.63;;
37843;SDS011;63793;57.632;18.292;2023-05-19T13:20:18;11.27;;;2.88;;
37843;SDS011;63793;57.632;18.292;2023-05-19T13:22:49;4.70;;;2.05;;
37843;SDS011;63793;57.632;18.292;2023-05-19T13:25:16;6.88;;;2.45;;
37843;SDS011;63793;57.632;18.292;2023-05-19T13:27:44;9.25;;;3.28;;
37843;SDS011;63793;57.632;18.292;2023-05-19T13:30:13;9.45;;;3.55;;
37843;SDS011;63793;57.632;18.292;2023-05-19T13:32:44;4.97;;;2.35;;
37843;SDS011;63793;57.632;18.292;2023-05-19T13:35:11;8.52;;;2.80;;
37843;SDS011;63793;57.632;18.292;2023-05-19T13:37:42;13.85;;;2.72;;
37843;SDS011;63793;57.632;18.292;2023-05-19T13:40:09;4.15;;;2.83;;
37843;SDS011;63793;57.632;18.292;2023-05-19T13:42:37;8.13;;;2.55;;
37843;SDS011;63793;57.632;18.292;2023-05-19T13:45:04;13.45;;;2.78;;
37843;SDS011;63793;57.632;18.292;2023-05-19T13:47:31;6.78;;;2.40;;
37843;SDS011;63793;57.632;18.292;2023-05-19T13:49:58;5.20;;;2.78;;
37843;SDS011;63793;57.632;18.292;2023-05-19T13:52:25;11.70;;;3.15;;
37843;SDS011;63793;57.632;18.292;2023-05-19T13:54:55;7.32;;;2.50;;
37843;SDS011;63793;57.632;18.292;2023-05-19T13:57:23;5.38;;;2.22;;
37843;SDS011;63793;57.632;18.292;2023-05-19T13:59:51;9.10;;;2.28;;
37843;SDS011;63793;57.632;18.292;2023-05-19T14:02:37;12.85;;;3.50;;
37843;SDS011;63793;57.632;18.292;2023-05-19T14:05:05;8.35;;;2.78;;
37843;SDS011;63793;57.632;18.292;2023-05-19T14:07:33;10.30;;;2.88;;
37843;SDS011;63793;57.632;18.292;2023-05-19T14:10:01;7.75;;;2.60;;
37843;SDS011;63793;57.632;18.292;2023-05-19T14:12:31;9.68;;;3.05;;
37843;SDS011;63793;57.632;18.292;2023-05-19T14:15:12;4.28;;;1.92;;
37843;SDS011;63793;57.632;18.292;2023-05-19T14:17:39;4.93;;;3.85;;
37843;SDS011;63793;57.632;18.292;2023-05-19T14:20:07;8.95;;;3.92;;
37843;SDS011;63793;57.632;18.292;2023-05-19T14:22:34;7.95;;;3.65;;
37843;SDS011;63793;57.632;18.292;2023-05-19T14:25:01;13.27;;;5.00;;
37843;SDS011;63793;57.632;18.292;2023-05-19T14:27:28;6.38;;;2.17;;
37843;SDS011;63793;57.632;18.292;2023-05-19T14:29:55;6.57;;;2.55;;
37843;SDS011;63793;57.632;18.292;2023-05-19T14:32:22;11.30;;;3.22;;
37843;SDS011;63793;57.632;18.292;2023-05-19T14:34:49;5.85;;;1.85;;
37843;SDS011;63793;57.632;18.292;2023-05-19T14:37:18;6.53;;;2.10;;
37843;SDS011;63793;57.632;18.292;2023-05-19T14:39:45;6.22;;;2.38;;
37843;SDS011;63793;57.632;18.292;2023-05-19T14:42:12;5.80;;;2.22;;
37843;SDS011;63793;57.632;18.292;2023-05-19T14:44:39;4.75;;;1.95;;
37843;SDS011;63793;57.632;18.292;2023-05-19T14:47:06;9.10;;;2.42;;
37843;SDS011;63793;57.632;18.292;2023-05-19T14:49:33;5.25;;;2.08;;
37843;SDS011;63793;57.632;18.292;2023-05-19T14:52:00;12.88;;;3.00;;
37843;SDS011;63793;57.632;18.292;2023-05-19T14:54:27;8.30;;;3.22;;
37843;SDS011;63793;57.632;18.292;2023-05-19T14:56:54;7.25;;;2.25;;
37843;SDS011;63793;57.632;18.292;2023-05-19T14:59:21;4.20;;;1.80;;
37843;SDS011;63793;57.632;18.292;2023-05-19T15:01:48;3.55;;;2.10;;
37843;SDS011;63793;57.632;18.292;2023-05-19T15:04:15;10.55;;;2.65;;
37843;SDS011;63793;57.632;18.292;2023-05-19T15:06:43;7.85;;;2.35;;
37843;SDS011;63793;57.632;18.292;2023-05-19T15:09:17;4.07;;;1.30;;
37843;SDS011;63793;57.632;18.292;2023-05-19T15:11:44;3.90;;;2.08;;
37843;SDS011;63793;57.632;18.292;2023-05-19T15:14:11;7.07;;;2.45;;
37843;SDS011;63793;57.632;18.292;2023-05-19T15:16:38;2.70;;;1.10;;
37843;SDS011;63793;57.632;18.292;2023-05-19T15:19:05;7.93;;;2.30;;
37843;SDS011;63793;57.632;18.292;2023-05-19T15:21:32;3.03;;;1.77;;
37843;SDS011;63793;57.632;18.292;2023-05-19T15:23:58;7.00;;;2.33;;
37843;SDS011;63793;57.632;18.292;2023-05-19T15:26:25;8.40;;;2.10;;
37843;SDS011;63793;57.632;18.292;2023-05-19T15:28:55;6.82;;;2.17;;
37843;SDS011;63793;57.632;18.292;2023-05-19T15:31:21;7.18;;;1.92;;
37843;SDS011;63793;57.632;18.292;2023-05-19T15:33:48;13.90;;;2.17;;